createdAt,value
2023-04-04T00:01:07.556Z,77.70
2023-04-04T00:03:35.761Z,78.10
2023-04-04T00:06:03.806Z,77.90
2023-04-04T00:08:32.222Z,77.60
2023-04-04T00:11:00.559Z,77.40
2023-04-04T00:13:30.544Z,77.20
2023-04-04T00:15:58.743Z,76.90
2023-04-04T00:18:26.717Z,76.90
2023-04-04T00:20:54.575Z,77.50
2023-04-04T00:23:22.752Z,77.60
2023-04-04T00:25:51.857Z,78.10
2023-04-04T00:28:20.047Z,78.00
2023-04-04T00:30:49.519Z,78.90
2023-04-04T00:33:17.374Z,78.80
2023-04-04T00:35:45.275Z,78.80
2023-04-04T00:38:13.328Z,78.60
2023-04-04T00:40:43.919Z,78.60
2023-04-04T00:43:12.272Z,78.40
2023-04-04T00:45:41.298Z,77.80
2023-04-04T00:48:10.608Z,78.90
2023-04-04T00:50:38.942Z,78.70
2023-04-04T00:53:07.296Z,78.70
2023-04-04T00:55:38.543Z,78.50
2023-04-04T00:58:07.516Z,77.60
2023-04-04T01:00:40.279Z,77.20
2023-04-04T01:03:10.321Z,76.90
2023-04-04T01:05:40.977Z,76.90
2023-04-04T01:08:08.949Z,76.60
2023-04-04T01:10:38.031Z,76.60
2023-04-04T01:13:06.612Z,76.90
2023-04-04T01:15:34.524Z,76.80
2023-04-04T01:18:04.901Z,76.80
2023-04-04T01:20:37.458Z,76.70
2023-04-04T01:23:08.004Z,76.60
2023-04-04T01:25:38.037Z,77.20
2023-04-04T01:28:06.573Z,77.70
2023-04-04T01:30:37.922Z,77.50
2023-04-04T01:33:11.627Z,77.60
2023-04-04T01:35:44.876Z,77.70
2023-04-04T01:38:24.855Z,77.50
2023-04-04T01:41:00.066Z,77.90
2023-04-04T01:43:27.979Z,77.80
2023-04-04T01:45:56.698Z,77.70
2023-04-04T01:48:24.616Z,77.90
2023-04-04T01:50:52.967Z,78.10
2023-04-04T01:53:22.757Z,78.50
2023-04-04T01:55:50.601Z,78.10
2023-04-04T01:58:20.002Z,77.90
2023-04-04T02:00:47.856Z,77.80
2023-04-04T02:03:16.042Z,78.70
2023-04-04T02:05:46.543Z,79.00
2023-04-04T02:08:15.133Z,79.40
2023-04-04T02:10:43.314Z,79.40
2023-04-04T02:13:11.399Z,79.10
2023-04-04T02:15:40.944Z,79.00
2023-04-04T02:18:09.219Z,78.80
2023-04-04T02:20:37.820Z,78.80
2023-04-04T02:23:06.122Z,78.90
2023-04-04T02:25:33.992Z,79.20
2023-04-04T02:28:01.881Z,79.20
2023-04-04T02:30:29.846Z,78.60
2023-04-04T02:33:00.912Z,78.30
2023-04-04T02:35:29.478Z,78.50
2023-04-04T02:37:57.289Z,78.80
2023-04-04T02:40:25.374Z,79.30
2023-04-04T02:42:54.515Z,79.60
2023-04-04T02:45:22.631Z,79.90
2023-04-04T02:47:51.954Z,80.20
2023-04-04T02:50:21.644Z,80.40
2023-04-04T02:52:49.949Z,80.40
2023-04-04T02:55:17.865Z,80.50
2023-04-04T02:57:53.423Z,80.50
2023-04-04T03:00:21.569Z,80.30
2023-04-04T03:02:55.911Z,80.30
2023-04-04T03:05:27.002Z,80.60
2023-04-04T03:07:56.713Z,80.80
2023-04-04T03:10:25.024Z,81.10
2023-04-04T03:12:52.944Z,81.20
2023-04-04T03:15:21.406Z,81.30
2023-04-04T03:17:50.098Z,81.10
2023-04-04T03:20:18.292Z,80.70
2023-04-04T03:22:47.889Z,80.60
2023-04-04T03:25:16.273Z,80.70
2023-04-04T03:27:44.067Z,80.30
2023-04-04T03:30:13.257Z,80.60
2023-04-04T03:32:41.229Z,80.50
2023-04-04T03:35:09.842Z,80.90
2023-04-04T03:37:37.700Z,81.10
2023-04-04T03:40:09.556Z,81.50
2023-04-04T03:42:37.876Z,81.40
2023-04-04T03:45:07.256Z,81.90
2023-04-04T03:47:36.565Z,82.10
2023-04-04T03:50:04.806Z,82.40
2023-04-04T03:52:32.722Z,82.30
2023-04-04T03:55:00.899Z,82.00
2023-04-04T03:57:30.684Z,82.60
2023-04-04T03:59:58.712Z,82.60
2023-04-04T04:02:27.380Z,82.70
2023-04-04T04:04:55.422Z,82.80
2023-04-04T04:07:23.396Z,82.70
2023-04-04T04:09:51.529Z,82.80
2023-04-04T04:12:19.556Z,83.20
2023-04-04T04:14:49.907Z,83.30
2023-04-04T04:17:18.089Z,83.10
2023-04-04T04:19:47.039Z,83.40
2023-04-04T04:22:14.924Z,83.20
2023-04-04T04:24:43.014Z,82.90
2023-04-04T04:27:11.163Z,82.80
2023-04-04T04:29:39.139Z,83.00
2023-04-04T04:32:08.666Z,83.10
2023-04-04T04:34:38.100Z,82.90
2023-04-04T04:37:06.187Z,83.30
2023-04-04T04:39:34.015Z,82.60
2023-04-04T04:42:02.441Z,82.10
2023-04-04T04:44:30.630Z,82.20
2023-04-04T04:46:58.758Z,82.10
2023-04-04T04:49:28.505Z,81.90
2023-04-04T04:51:56.418Z,82.30
2023-04-04T04:54:24.344Z,82.30
2023-04-04T04:56:52.228Z,82.40
2023-04-04T04:59:20.127Z,82.40
2023-04-04T05:01:48.208Z,82.10
2023-04-04T05:04:17.576Z,81.90
2023-04-04T05:06:46.858Z,81.80
2023-04-04T05:09:14.812Z,81.90
2023-04-04T05:11:43.119Z,82.00
2023-04-04T05:14:10.983Z,81.60
2023-04-04T05:16:40.644Z,81.40
2023-04-04T05:19:11.163Z,81.40
2023-04-04T05:21:39.509Z,81.30
2023-04-04T05:24:09.752Z,81.50
2023-04-04T05:26:38.716Z,81.70
2023-04-04T05:29:06.555Z,81.70
2023-04-04T05:31:34.564Z,81.40
2023-04-04T05:34:08.008Z,81.20
2023-04-04T05:36:37.969Z,81.00
2023-04-04T05:39:06.316Z,81.10
2023-04-04T05:41:36.419Z,81.60
2023-04-04T05:44:04.338Z,81.20
2023-04-04T05:46:32.653Z,81.20
2023-04-04T05:49:00.970Z,81.10
2023-04-04T05:51:29.182Z,80.90
2023-04-04T05:53:57.558Z,80.60
2023-04-04T05:56:26.118Z,80.50
2023-04-04T05:58:55.688Z,80.50
2023-04-04T06:01:23.581Z,80.30
2023-04-04T06:03:51.539Z,80.30
2023-04-04T06:06:19.949Z,80.20
2023-04-04T06:08:53.490Z,80.20
2023-04-04T06:11:22.998Z,79.40
2023-04-04T06:13:51.217Z,78.40
2023-04-04T06:16:21.034Z,78.70
2023-04-04T06:18:49.535Z,78.90
2023-04-04T06:21:17.585Z,77.90
2023-04-04T06:23:46.218Z,77.20
2023-04-04T06:26:14.848Z,77.20
2023-04-04T06:28:49.264Z,77.20
2023-04-04T06:31:17.294Z,76.80
2023-04-04T06:33:46.602Z,76.00
2023-04-04T06:36:14.855Z,76.10
2023-04-04T06:38:42.822Z,76.30
2023-04-04T06:41:11.258Z,75.80
2023-04-04T06:43:39.337Z,75.60
2023-04-04T06:46:07.888Z,75.00
2023-04-04T06:48:35.898Z,74.50
2023-04-04T06:51:08.293Z,74.20
2023-04-04T06:53:37.122Z,73.90
2023-04-04T06:56:10.983Z,73.60
2023-04-04T06:58:39.550Z,74.10
2023-04-04T07:01:08.099Z,73.00
2023-04-04T07:03:36.353Z,72.50
2023-04-04T07:06:05.512Z,72.70
2023-04-04T07:08:37.004Z,71.60
2023-04-04T07:11:06.213Z,71.60
2023-04-04T07:13:36.436Z,71.50
2023-04-04T07:16:04.414Z,71.30
2023-04-04T07:18:32.681Z,71.10
2023-04-04T07:21:01.061Z,70.50
2023-04-04T07:23:29.221Z,71.30
2023-04-04T07:25:58.750Z,70.50
2023-04-04T07:28:26.997Z,70.00
2023-04-04T07:30:55.176Z,69.60
2023-04-04T07:33:23.373Z,70.20
2023-04-04T07:35:52.149Z,70.60
2023-04-04T07:38:20.638Z,69.80
2023-04-04T07:40:50.142Z,69.20
2023-04-04T07:43:19.770Z,68.70
2023-04-04T07:45:48.034Z,67.20
2023-04-04T07:48:16.219Z,67.00
2023-04-04T07:50:44.091Z,67.30
2023-04-04T07:53:12.091Z,64.90
2023-04-04T07:55:40.334Z,64.90
2023-04-04T07:58:08.448Z,63.20
2023-04-04T08:00:37.903Z,63.70
2023-04-04T08:03:07.438Z,62.80
2023-04-04T08:05:35.462Z,63.10
2023-04-04T08:08:04.281Z,63.30
2023-04-04T08:10:32.216Z,62.30
2023-04-04T08:13:00.528Z,61.40
2023-04-04T08:15:30.912Z,59.10
2023-04-04T08:18:00.725Z,60.60
2023-04-04T08:20:29.350Z,58.90
2023-04-04T08:22:57.465Z,57.80
2023-04-04T08:25:25.375Z,59.10
2023-04-04T08:27:53.605Z,58.90
2023-04-04T08:30:22.681Z,58.50
2023-04-04T08:32:51.017Z,57.30
2023-04-04T08:35:20.855Z,55.30
2023-04-04T08:37:48.860Z,55.60
2023-04-04T08:40:18.176Z,55.80
2023-04-04T08:42:47.084Z,56.40
2023-04-04T08:45:20.257Z,56.90
2023-04-04T08:47:50.815Z,56.20
2023-04-04T08:50:23.019Z,55.50
2023-04-04T08:52:51.810Z,54.80
2023-04-04T08:55:20.118Z,54.90
2023-04-04T08:57:48.148Z,55.60
2023-04-04T09:00:18.609Z,54.10
2023-04-04T09:02:54.156Z,53.20
2023-04-04T09:05:23.727Z,51.80
2023-04-04T09:07:52.263Z,52.60
2023-04-04T09:10:23.442Z,51.50
2023-04-04T09:12:55.418Z,50.60
2023-04-04T09:15:25.796Z,48.50
2023-04-04T09:17:53.909Z,49.50
2023-04-04T09:20:40.765Z,48.90
2023-04-04T09:23:11.499Z,49.40
2023-04-04T09:25:56.331Z,50.70
2023-04-04T09:28:29.546Z,48.90
2023-04-04T09:30:58.431Z,50.20
2023-04-04T09:33:27.178Z,49.00
2023-04-04T09:36:00.061Z,49.20
2023-04-04T09:38:30.661Z,49.80
2023-04-04T09:40:58.854Z,47.20
2023-04-04T09:43:31.206Z,48.60
2023-04-04T09:46:01.264Z,46.00
2023-04-04T09:48:35.147Z,49.30
2023-04-04T09:51:07.659Z,45.80
2023-04-04T09:53:37.848Z,44.50
2023-04-04T09:56:06.932Z,44.70
2023-04-04T09:58:37.326Z,45.70
2023-04-04T10:01:10.736Z,45.20
2023-04-04T10:03:39.972Z,43.50
2023-04-04T10:06:11.023Z,44.80
2023-04-04T10:08:42.200Z,42.50
2023-04-04T10:11:12.399Z,43.50
2023-04-04T10:13:42.270Z,43.40
2023-04-04T10:16:12.318Z,41.70
2023-04-04T10:18:40.964Z,41.60
2023-04-04T10:23:44.015Z,39.70
2023-04-04T10:26:13.575Z,40.60
2023-04-04T10:28:43.845Z,40.70
2023-04-04T10:31:23.755Z,40.80
2023-04-04T10:34:08.102Z,43.30
2023-04-04T10:36:45.902Z,41.10
2023-04-04T10:39:16.667Z,40.90
2023-04-04T10:41:47.763Z,42.30
2023-04-04T10:44:24.991Z,41.40
2023-04-04T10:46:55.033Z,40.90
2023-04-04T10:49:24.302Z,38.60
2023-04-04T10:51:57.191Z,39.80
2023-04-04T10:54:27.579Z,39.10
2023-04-04T10:56:56.703Z,39.40
2023-04-04T10:59:27.233Z,36.20
2023-04-04T11:02:01.464Z,36.60
2023-04-04T11:04:35.581Z,35.20
2023-04-04T11:07:17.281Z,35.70
2023-04-04T11:09:56.711Z,36.30
2023-04-04T11:12:30.005Z,34.90
2023-04-04T11:15:12.223Z,35.10
2023-04-04T11:18:26.554Z,36.10
2023-04-04T11:20:57.192Z,35.10
2023-04-04T11:23:27.627Z,36.50
2023-04-04T11:25:56.326Z,38.10
2023-04-04T11:28:29.702Z,37.70
2023-04-04T11:31:27.593Z,35.50
2023-04-04T11:33:57.881Z,36.60
2023-04-04T11:36:53.245Z,32.50
2023-04-04T11:39:31.510Z,32.40
2023-04-04T11:42:04.528Z,33.60
2023-04-04T11:44:34.484Z,32.50
2023-04-04T11:47:10.401Z,34.30
2023-04-04T11:49:42.829Z,34.30
2023-04-04T11:52:13.854Z,35.00
2023-04-04T11:54:46.497Z,34.60
2023-04-04T11:57:16.660Z,33.00
2023-04-04T11:59:46.847Z,34.40
2023-04-04T12:02:17.063Z,32.40
2023-04-04T12:04:49.705Z,34.20
2023-04-04T12:07:19.239Z,35.60
2023-04-04T12:09:50.557Z,34.40
2023-04-04T12:12:18.615Z,35.20
2023-04-04T12:14:46.876Z,33.70
2023-04-04T12:17:17.857Z,35.50
2023-04-04T12:19:50.009Z,33.10
2023-04-04T12:22:18.273Z,34.60
2023-04-04T12:24:46.378Z,34.30
2023-04-04T12:27:17.076Z,33.90
2023-04-04T12:29:47.536Z,34.20
2023-04-04T12:32:17.464Z,36.70
2023-04-04T12:34:49.979Z,33.10
2023-04-04T12:37:20.466Z,35.90
2023-04-04T12:39:50.098Z,32.00
2023-04-04T12:42:27.453Z,31.60
2023-04-04T12:44:55.526Z,32.30
2023-04-04T12:47:27.210Z,33.30
2023-04-04T12:49:56.489Z,33.70
2023-04-04T12:52:29.862Z,35.50
2023-04-04T12:57:35.997Z,32.40
2023-04-04T13:00:08.188Z,34.90
2023-04-04T13:02:40.183Z,33.30
2023-04-04T13:05:11.323Z,33.20
2023-04-04T13:07:43.475Z,30.60
2023-04-04T13:10:16.068Z,34.50
2023-04-04T13:13:09.657Z,32.80
2023-04-04T13:15:50.768Z,31.70
2023-04-04T13:18:22.132Z,30.90
2023-04-04T13:20:50.713Z,31.00
2023-04-04T13:23:20.185Z,30.40
2023-04-04T13:25:48.309Z,30.70
2023-04-04T13:28:18.670Z,31.00
2023-04-04T13:30:49.187Z,30.30
2023-04-04T13:33:17.821Z,29.00
2023-04-04T13:35:46.701Z,31.20
2023-04-04T13:38:14.690Z,30.20
2023-04-04T13:40:43.865Z,29.60
2023-04-04T13:43:13.062Z,28.50
2023-04-04T13:45:44.476Z,31.70
2023-04-04T13:48:13.171Z,30.20
2023-04-04T13:50:43.901Z,30.40
2023-04-04T13:53:12.708Z,31.70
2023-04-04T13:55:52.050Z,29.50
2023-04-04T13:58:25.113Z,32.70
2023-04-04T14:00:54.490Z,28.90
2023-04-04T14:03:22.878Z,30.70
2023-04-04T14:05:51.022Z,30.10
2023-04-04T14:08:19.697Z,30.20
2023-04-04T14:10:47.842Z,31.00
2023-04-04T14:13:16.406Z,30.40
2023-04-04T14:15:44.586Z,30.30
2023-04-04T14:18:14.423Z,30.80
2023-04-04T14:20:42.651Z,31.90
2023-04-04T14:23:11.190Z,30.50
2023-04-04T14:25:39.251Z,30.30
2023-04-04T14:28:09.217Z,31.20
2023-04-04T14:30:40.335Z,29.60
2023-04-04T14:33:08.342Z,30.90
2023-04-04T14:35:38.054Z,29.70
2023-04-04T14:38:06.681Z,31.30
2023-04-04T14:40:35.328Z,28.80
2023-04-04T14:43:03.526Z,30.00
2023-04-04T14:45:33.859Z,29.40
2023-04-04T14:48:03.632Z,32.40
2023-04-04T14:50:46.503Z,29.90
2023-04-04T14:53:17.213Z,30.40
2023-04-04T14:55:45.522Z,32.80
2023-04-04T14:58:13.986Z,30.10
2023-04-04T15:00:42.328Z,29.20
2023-04-04T15:03:11.863Z,30.50
2023-04-04T15:05:40.761Z,30.70
2023-04-04T15:08:08.946Z,31.10
2023-04-04T15:10:41.563Z,30.80
2023-04-04T15:13:11.351Z,31.90
2023-04-04T15:15:40.000Z,31.60
2023-04-04T15:18:08.387Z,31.30
2023-04-04T16:18:25.856Z,36.00
2023-04-04T16:20:53.698Z,35.40
2023-04-04T16:23:21.781Z,34.50
2023-04-04T16:25:49.659Z,34.60
2023-04-04T16:28:17.648Z,34.40
2023-04-04T16:30:45.544Z,35.00
2023-04-04T16:33:13.402Z,35.50
2023-04-04T16:35:42.725Z,36.00
2023-04-04T16:38:10.604Z,36.40
2023-04-04T16:40:39.360Z,36.10
2023-04-04T16:43:07.401Z,37.90
2023-04-04T16:45:35.272Z,38.00
2023-04-04T16:48:03.255Z,37.10
2023-04-04T16:50:31.298Z,38.10
2023-04-04T16:53:00.873Z,39.20
2023-04-04T16:55:29.064Z,39.60
2023-04-04T16:57:56.944Z,40.20
2023-04-04T17:00:25.318Z,39.80
2023-04-04T17:02:53.454Z,38.50
2023-04-04T17:05:21.546Z,39.80
2023-04-04T17:07:49.402Z,40.50
2023-04-04T17:10:19.264Z,39.20
2023-04-04T17:12:47.415Z,39.40
2023-04-04T17:15:17.702Z,40.90
2023-04-04T17:17:46.797Z,41.50
2023-04-04T17:20:17.845Z,42.20
2023-04-04T17:22:47.299Z,43.10
2023-04-04T17:25:15.234Z,43.40
2023-04-04T17:27:44.602Z,42.20
2023-04-04T17:30:13.758Z,43.40
2023-04-04T17:32:41.904Z,43.90
2023-04-04T17:35:17.651Z,43.60
2023-04-04T17:37:45.965Z,43.20
2023-04-04T17:40:19.571Z,44.30
2023-04-04T17:42:50.618Z,45.30
2023-04-04T17:45:19.850Z,46.00
2023-04-04T17:47:47.843Z,46.80
2023-04-04T17:50:16.957Z,46.40
2023-04-04T17:52:44.898Z,45.90
2023-04-04T17:55:13.151Z,47.90
2023-04-04T17:57:41.411Z,48.90
2023-04-04T18:00:12.248Z,49.50
2023-04-04T18:02:40.389Z,50.10
2023-04-04T18:05:10.058Z,50.10
2023-04-04T18:07:37.980Z,50.80
2023-04-04T18:10:08.435Z,50.10
2023-04-04T18:12:36.357Z,51.20
2023-04-04T18:15:05.034Z,50.70
2023-04-04T18:17:34.563Z,51.60
2023-04-04T18:20:04.168Z,53.50
2023-04-04T18:22:32.303Z,55.10
2023-04-04T18:25:00.535Z,56.30
2023-04-04T18:27:28.428Z,56.10
2023-04-04T18:29:56.427Z,57.10
2023-04-04T18:32:26.311Z,57.50
2023-04-04T18:34:55.780Z,59.00
2023-04-04T18:37:23.868Z,59.50
2023-04-04T18:39:51.868Z,58.40
2023-04-04T18:42:19.819Z,58.60
2023-04-04T18:44:47.750Z,57.50
2023-04-04T18:47:15.716Z,57.00
2023-04-04T18:49:43.901Z,57.90
2023-04-04T18:52:13.206Z,58.40
2023-04-04T18:54:41.156Z,60.00
2023-04-04T18:57:09.221Z,59.00
2023-04-04T18:59:37.211Z,59.30
2023-04-04T19:02:05.158Z,58.20
2023-04-04T19:04:35.723Z,57.80
2023-04-04T19:07:06.654Z,57.00
2023-04-04T19:09:38.769Z,55.80
2023-04-04T19:12:06.842Z,55.30
2023-04-04T19:14:34.764Z,54.70
2023-04-04T19:17:02.730Z,53.50
2023-04-04T19:19:31.394Z,53.70
2023-04-04T19:21:59.366Z,53.60
2023-04-04T19:24:27.335Z,53.50
2023-04-04T19:26:56.598Z,54.20
2023-04-04T19:29:24.508Z,55.60
2023-04-04T19:31:55.107Z,56.50
2023-04-04T19:34:23.039Z,57.40
2023-04-04T19:36:51.141Z,59.30
2023-04-04T19:39:20.846Z,60.50
2023-04-04T19:41:48.864Z,61.80
2023-04-04T19:44:20.783Z,62.60
2023-04-04T19:46:49.111Z,62.20
2023-04-04T19:49:17.942Z,59.60
2023-04-04T19:51:51.722Z,59.70
2023-04-04T19:54:24.862Z,60.10
2023-04-04T19:56:58.563Z,61.70
2023-04-04T19:59:59.340Z,62.40
2023-04-04T20:02:50.384Z,63.70
2023-04-04T20:05:52.794Z,63.20
2023-04-04T20:08:21.236Z,62.10
2023-04-04T20:10:49.743Z,60.90
2023-04-04T20:13:19.742Z,59.40
2023-04-04T20:16:01.696Z,59.30
2023-04-04T20:18:31.410Z,58.20
2023-04-04T20:21:17.673Z,59.30
2023-04-04T20:23:52.519Z,57.30
2023-04-04T20:26:51.318Z,57.00
2023-04-04T20:29:22.592Z,57.70
2023-04-04T20:31:54.131Z,59.60
2023-04-04T20:34:41.755Z,60.70
2023-04-04T20:37:13.060Z,59.90
2023-04-04T20:39:44.780Z,61.30
2023-04-04T20:42:19.358Z,62.60
2023-04-04T20:44:47.651Z,63.60
2023-04-04T20:47:43.026Z,64.70
2023-04-04T20:50:36.879Z,65.80
2023-04-04T20:53:07.172Z,66.40
2023-04-04T20:55:36.423Z,67.40
2023-04-04T20:58:09.210Z,68.20
2023-04-04T21:00:41.432Z,68.20
2023-04-04T21:03:24.224Z,68.20
2023-04-04T21:05:52.645Z,68.80
2023-04-04T21:08:37.940Z,69.30
2023-04-04T21:11:06.929Z,69.70
2023-04-04T21:13:37.139Z,70.10
2023-04-04T21:16:08.170Z,70.60
2023-04-04T21:18:38.312Z,70.80
2023-04-04T21:21:11.687Z,71.70
2023-04-04T21:23:46.102Z,72.50
2023-04-04T21:26:28.371Z,72.70
2023-04-04T21:28:57.281Z,72.90
2023-04-04T21:31:28.610Z,73.10
2023-04-04T21:34:08.391Z,73.60
2023-04-04T21:36:36.331Z,73.80
2023-04-04T21:39:08.270Z,74.10
2023-04-04T21:41:36.423Z,73.80
2023-04-04T21:44:06.240Z,73.90
2023-04-04T21:46:36.065Z,73.20
2023-04-04T21:49:06.077Z,73.10
2023-04-04T21:51:34.450Z,72.90
2023-04-04T21:54:02.956Z,73.10
2023-04-04T21:56:32.231Z,73.20
2023-04-04T21:59:00.935Z,73.00
2023-04-04T22:01:30.351Z,72.30
2023-04-04T22:03:58.496Z,72.50
2023-04-04T22:06:28.198Z,73.10
2023-04-04T22:08:57.553Z,74.00
2023-04-04T22:11:27.065Z,74.10
2023-04-04T22:14:04.007Z,73.90
2023-04-04T22:16:36.724Z,73.60
2023-04-04T22:19:05.125Z,73.40
2023-04-04T22:21:36.308Z,73.90
2023-04-04T22:24:05.917Z,73.70
2023-04-04T22:26:34.152Z,73.50
2023-04-04T22:29:03.466Z,73.30
2023-04-04T22:31:34.082Z,72.70
2023-04-04T22:34:03.204Z,72.40
2023-04-04T22:36:31.643Z,71.10
2023-04-04T22:39:01.937Z,70.50
2023-04-04T22:41:30.760Z,71.20
2023-04-04T22:43:59.047Z,71.50
2023-04-04T22:46:28.828Z,70.30
2023-04-04T22:49:06.150Z,70.10
2023-04-04T22:51:44.726Z,70.20
2023-04-04T22:54:15.740Z,70.60
2023-04-04T22:56:44.011Z,71.50
2023-04-04T22:59:12.064Z,71.40
2023-04-04T23:01:40.724Z,71.70
2023-04-04T23:04:08.966Z,72.30
2023-04-04T23:06:38.313Z,72.40
2023-04-04T23:09:07.457Z,72.40
2023-04-04T23:11:37.525Z,73.30
2023-04-04T23:14:08.704Z,74.10
2023-04-04T23:16:37.236Z,74.40
2023-04-04T23:19:05.327Z,75.30
2023-04-04T23:21:33.355Z,75.40
2023-04-04T23:24:01.489Z,75.30
2023-04-04T23:26:29.391Z,75.10
2023-04-04T23:28:58.966Z,75.00
2023-04-04T23:31:27.538Z,74.80
2023-04-04T23:33:55.624Z,74.40
2023-04-04T23:36:23.612Z,74.50
2023-04-04T23:38:51.531Z,74.50
2023-04-04T23:41:19.425Z,74.60
2023-04-04T23:43:47.637Z,74.20
2023-04-04T23:46:17.122Z,74.10
2023-04-04T23:48:45.109Z,74.00
2023-04-04T23:51:13.440Z,73.60
2023-04-04T23:53:41.469Z,73.80
2023-04-04T23:56:09.653Z,73.70
2023-04-04T23:58:39.138Z,73.70
